createdAt,value
2019-02-17T00:00:50.239Z,1.40
2019-02-17T00:03:18.884Z,1.30
2019-02-17T00:05:47.412Z,1.20
2019-02-17T00:08:15.936Z,1.20
2019-02-17T00:10:44.723Z,1.40
2019-02-17T00:13:13.323Z,1.40
2019-02-17T00:15:41.776Z,1.30
2019-02-17T00:18:10.403Z,1.20
2019-02-17T00:20:38.860Z,1.10
2019-02-17T00:23:07.387Z,1.10
2019-02-17T00:25:36.187Z,1.00
2019-02-17T00:28:24.072Z,1.00
2019-02-17T00:30:52.633Z,0.90
2019-02-17T00:33:21.088Z,0.90
2019-02-17T00:35:49.546Z,0.90
2019-02-17T00:38:18.230Z,1.10
2019-02-17T00:40:46.720Z,1.00
2019-02-17T00:43:15.162Z,0.90
2019-02-17T00:45:44.159Z,0.80
2019-02-17T00:48:12.856Z,0.80
2019-02-17T00:50:41.585Z,0.70
2019-02-17T00:53:10.751Z,0.70
2019-02-17T00:55:58.567Z,0.70
2019-02-17T00:58:27.170Z,0.70
2019-02-17T01:00:56.916Z,0.70
2019-02-17T01:03:25.412Z,0.60
2019-02-17T01:05:53.957Z,0.70
2019-02-17T01:08:22.413Z,0.60
2019-02-17T01:10:51.164Z,0.60
2019-02-17T01:13:19.990Z,0.70
2019-02-17T01:15:48.647Z,0.80
2019-02-17T01:18:17.393Z,0.70
2019-02-17T01:20:46.061Z,0.60
2019-02-17T01:23:14.506Z,0.60
2019-02-17T01:25:43.497Z,0.60
2019-02-17T01:28:12.058Z,0.50
2019-02-17T01:30:40.739Z,0.50
2019-02-17T01:33:09.550Z,0.40
2019-02-17T01:35:38.703Z,0.40
2019-02-17T01:38:07.299Z,0.50
2019-02-17T01:40:35.819Z,0.50
2019-02-17T01:43:04.587Z,0.60
2019-02-17T01:45:33.056Z,0.50
2019-02-17T01:48:01.506Z,0.50
2019-02-17T01:50:30.058Z,0.40
2019-02-17T01:52:58.604Z,0.40
2019-02-17T01:55:27.122Z,0.30
2019-02-17T01:57:56.694Z,0.30
2019-02-17T02:00:25.225Z,0.30
2019-02-17T02:02:53.850Z,0.30
2019-02-17T02:05:22.410Z,0.50
2019-02-17T02:07:50.930Z,0.50
2019-02-17T02:10:19.450Z,0.40
2019-02-17T02:12:48.002Z,0.40
2019-02-17T02:15:16.624Z,0.50
2019-02-17T02:17:45.075Z,0.40
2019-02-17T02:20:14.009Z,0.30
2019-02-17T02:22:42.612Z,0.20
2019-02-17T02:25:11.198Z,0.10
2019-02-17T02:27:39.691Z,0.30
2019-02-17T02:30:11.290Z,0.20
2019-02-17T02:32:39.871Z,0.10
2019-02-17T02:35:08.605Z,0.00
2019-02-17T02:37:37.314Z,0.00
2019-02-17T02:40:07.346Z,-0.10
2019-02-17T02:42:35.939Z,-0.20
2019-02-17T02:45:07.124Z,-0.30
2019-02-17T02:47:35.867Z,-0.20
2019-02-17T02:50:06.684Z,-0.10
2019-02-17T02:52:35.423Z,-0.20
2019-02-17T02:55:04.433Z,-0.20
2019-02-17T02:57:33.058Z,-0.20
2019-02-17T03:00:01.679Z,-0.20
2019-02-17T03:02:30.301Z,-0.20
2019-02-17T03:04:58.870Z,-0.20
2019-02-17T03:07:27.593Z,-0.20
2019-02-17T03:09:56.340Z,-0.30
2019-02-17T03:12:25.055Z,-0.30
2019-02-17T03:14:53.740Z,-0.30
2019-02-17T03:17:22.395Z,-0.30
2019-02-17T03:19:51.028Z,-0.30
2019-02-17T03:22:19.640Z,-0.20
2019-02-17T03:24:48.310Z,-0.30
2019-02-17T03:27:16.999Z,-0.30
2019-02-17T03:29:45.639Z,-0.30
2019-02-17T03:32:14.317Z,-0.30
2019-02-17T03:34:42.899Z,-0.40
2019-02-17T03:37:11.584Z,-0.40
2019-02-17T03:39:40.516Z,-0.40
2019-02-17T03:42:09.265Z,-0.40
2019-02-17T03:44:37.875Z,-0.40
2019-02-17T03:47:06.523Z,-0.40
2019-02-17T03:49:35.261Z,-0.50
2019-02-17T03:52:03.977Z,-0.40
2019-02-17T03:54:32.558Z,-0.50
2019-02-17T03:57:01.165Z,-0.30
2019-02-17T03:59:29.814Z,-0.40
2019-02-17T04:01:58.430Z,-0.50
2019-02-17T04:04:27.002Z,-0.60
2019-02-17T04:06:55.575Z,-0.70
2019-02-17T04:09:24.256Z,-0.70
2019-02-17T04:11:52.892Z,-0.60
2019-02-17T04:14:21.490Z,-0.70
2019-02-17T04:16:50.183Z,-0.70
2019-02-17T04:19:18.868Z,-0.70
2019-02-17T04:21:47.491Z,-0.70
2019-02-17T04:24:16.175Z,-0.70
2019-02-17T04:26:44.742Z,-0.80
2019-02-17T04:29:13.469Z,-0.80
2019-02-17T04:31:42.152Z,-0.80
2019-02-17T04:34:10.725Z,-0.70
2019-02-17T04:36:39.395Z,-0.70
2019-02-17T04:39:07.980Z,-0.60
2019-02-17T04:41:36.659Z,-0.70
2019-02-17T04:44:05.378Z,-0.60
2019-02-17T04:46:33.995Z,-0.60
2019-02-17T04:49:02.638Z,-0.60
2019-02-17T04:51:31.271Z,-0.60
2019-02-17T04:53:59.890Z,-0.60
2019-02-17T04:56:28.611Z,-0.50
2019-02-17T04:58:57.218Z,-0.50
2019-02-17T05:01:25.866Z,-0.50
2019-02-17T05:03:54.462Z,-0.50
2019-02-17T05:06:23.077Z,-0.60
2019-02-17T05:08:51.789Z,-0.70
2019-02-17T05:11:20.574Z,-0.80
2019-02-17T05:13:49.210Z,-0.80
2019-02-17T05:16:17.815Z,-0.90
2019-02-17T05:18:46.388Z,-0.90
2019-02-17T05:21:15.035Z,-0.70
2019-02-17T05:23:51.291Z,-0.80
2019-02-17T05:26:19.864Z,-0.80
2019-02-17T05:28:48.475Z,-0.70
2019-02-17T05:31:17.052Z,-0.80
2019-02-17T05:33:45.691Z,-0.70
2019-02-17T05:36:14.300Z,-0.80
2019-02-17T05:38:42.883Z,-0.90
2019-02-17T05:41:11.489Z,-1.00
2019-02-17T05:43:40.135Z,-1.10
2019-02-17T05:46:08.706Z,-1.00
2019-02-17T05:48:37.323Z,-1.00
2019-02-17T05:51:05.955Z,-1.00
2019-02-17T05:53:34.555Z,-1.10
2019-02-17T05:56:03.260Z,-1.10
2019-02-17T05:58:31.908Z,-1.10
2019-02-17T06:01:03.723Z,-1.00
2019-02-17T06:03:30.870Z,-0.90
2019-02-17T06:05:59.474Z,-1.00
2019-02-17T06:08:28.188Z,-1.10
2019-02-17T06:10:56.793Z,-1.10
2019-02-17T06:13:25.359Z,-1.10
2019-02-17T06:15:54.159Z,-1.00
2019-02-17T06:18:22.736Z,-1.10
2019-02-17T06:20:51.306Z,-1.10
2019-02-17T06:23:19.915Z,-1.30
2019-02-17T06:25:48.498Z,-1.40
2019-02-17T06:28:17.231Z,-1.40
2019-02-17T06:30:45.875Z,-1.40
2019-02-17T06:33:14.478Z,-1.40
2019-02-17T06:35:43.075Z,-1.30
2019-02-17T06:38:11.949Z,-1.30
2019-02-17T06:40:40.603Z,-1.30
2019-02-17T06:43:09.249Z,-1.10
2019-02-17T06:45:37.936Z,-1.10
2019-02-17T06:48:06.581Z,-1.10
2019-02-17T06:50:35.267Z,-0.90
2019-02-17T06:53:03.912Z,-0.90
2019-02-17T06:55:43.268Z,-0.80
2019-02-17T06:58:11.795Z,-0.70
2019-02-17T07:00:42.243Z,-0.70
2019-02-17T07:03:10.887Z,-0.60
2019-02-17T07:05:41.099Z,-0.40
2019-02-17T07:08:10.802Z,-0.30
2019-02-17T07:10:39.351Z,-0.30
2019-02-17T07:13:08.023Z,-0.10
2019-02-17T07:15:36.592Z,0.00
2019-02-17T07:18:05.188Z,0.50
2019-02-17T07:20:33.763Z,1.00
2019-02-17T07:23:02.431Z,1.50
2019-02-17T07:25:31.131Z,1.90
2019-02-17T07:28:00.062Z,2.10
2019-02-17T07:30:28.700Z,1.90
2019-02-17T07:32:57.337Z,1.80
2019-02-17T07:35:26.016Z,1.40
2019-02-17T07:37:54.647Z,1.30
2019-02-17T07:40:23.248Z,1.10
2019-02-17T07:42:51.811Z,1.10
2019-02-17T07:45:20.559Z,1.10
2019-02-17T07:47:49.119Z,1.20
2019-02-17T07:50:17.727Z,1.10
2019-02-17T07:52:46.366Z,1.10
2019-02-17T07:55:15.111Z,1.20
2019-02-17T07:57:43.703Z,1.20
2019-02-17T08:00:13.179Z,1.40
2019-02-17T08:02:41.844Z,1.60
2019-02-17T08:05:10.489Z,1.60
2019-02-17T08:07:39.157Z,1.60
2019-02-17T08:10:09.455Z,1.70
2019-02-17T08:12:38.487Z,2.00
2019-02-17T08:15:09.599Z,2.00
2019-02-17T08:17:38.287Z,2.50
2019-02-17T08:20:11.399Z,3.40
2019-02-17T08:22:40.041Z,5.00
2019-02-17T08:25:09.293Z,6.00
2019-02-17T08:27:37.991Z,6.60
2019-02-17T08:30:12.314Z,8.00
2019-02-17T08:32:40.885Z,8.40
2019-02-17T08:35:09.839Z,8.50
2019-02-17T08:37:38.491Z,9.00
2019-02-17T08:40:09.863Z,10.30
2019-02-17T08:42:38.604Z,11.40
2019-02-17T08:45:09.227Z,11.80
2019-02-17T08:47:37.826Z,12.10
2019-02-17T08:50:09.309Z,12.20
2019-02-17T08:52:38.079Z,12.30
2019-02-17T08:55:09.191Z,12.80
2019-02-17T08:57:38.193Z,12.10
2019-02-17T09:00:10.401Z,12.00
2019-02-17T09:02:40.785Z,12.30
2019-02-17T09:05:09.683Z,12.40
2019-02-17T09:07:38.337Z,13.10
2019-02-17T09:10:12.102Z,13.40
2019-02-17T09:12:40.747Z,12.90
2019-02-17T09:15:13.729Z,13.80
2019-02-17T09:17:42.404Z,14.30
2019-02-17T09:20:11.718Z,14.50
2019-02-17T09:22:40.426Z,15.00
2019-02-17T09:25:11.154Z,14.90
2019-02-17T09:27:39.893Z,15.40
2019-02-17T09:30:11.560Z,15.60
2019-02-17T09:32:40.317Z,15.50
2019-02-17T09:35:09.030Z,16.30
2019-02-17T09:37:37.746Z,16.20
2019-02-17T09:40:09.095Z,17.00
2019-02-17T09:42:37.820Z,15.90
2019-02-17T09:45:09.496Z,16.00
2019-02-17T09:47:38.066Z,16.00
2019-02-17T09:50:09.984Z,16.70
2019-02-17T09:52:38.636Z,17.00
2019-02-17T09:55:08.848Z,17.20
2019-02-17T09:57:39.298Z,17.40
2019-02-17T10:00:11.213Z,17.30
2019-02-17T10:02:39.952Z,17.80
2019-02-17T10:05:10.431Z,16.70
2019-02-17T10:07:39.488Z,18.00
2019-02-17T10:10:15.557Z,19.00
2019-02-17T10:12:44.215Z,18.50
2019-02-17T10:15:13.852Z,18.30
2019-02-17T10:17:42.567Z,18.90
2019-02-17T10:20:13.336Z,19.10
2019-02-17T10:22:41.980Z,19.30
2019-02-17T10:25:11.025Z,20.10
2019-02-17T10:27:39.747Z,20.70
2019-02-17T10:30:16.627Z,21.70
2019-02-17T10:32:45.285Z,21.40
2019-02-17T10:35:14.239Z,21.90
2019-02-17T10:37:42.884Z,20.50
2019-02-17T10:40:16.395Z,20.70
2019-02-17T10:42:45.078Z,21.50
2019-02-17T10:45:14.499Z,22.10
2019-02-17T10:47:43.243Z,21.40
2019-02-17T10:50:12.918Z,20.10
2019-02-17T10:52:41.640Z,20.50
2019-02-17T10:55:12.055Z,21.00
2019-02-17T10:57:41.330Z,21.10
2019-02-17T11:00:14.047Z,21.30
2019-02-17T11:02:47.012Z,21.40
2019-02-17T11:05:13.188Z,21.50
2019-02-17T11:07:41.902Z,22.10
2019-02-17T11:10:12.157Z,22.40
2019-02-17T11:12:40.924Z,23.00
2019-02-17T11:15:18.095Z,23.10
2019-02-17T11:17:46.689Z,23.50
2019-02-17T11:20:15.439Z,22.60
2019-02-17T11:22:44.161Z,23.50
2019-02-17T11:25:13.049Z,23.20
2019-02-17T11:27:43.364Z,23.90
2019-02-17T11:30:19.735Z,24.50
2019-02-17T11:32:57.681Z,25.00
2019-02-17T11:35:19.122Z,25.10
2019-02-17T11:37:47.848Z,25.50
2019-02-17T11:40:16.725Z,25.80
2019-02-17T11:42:45.349Z,25.30
2019-02-17T11:45:16.640Z,26.20
2019-02-17T11:47:45.291Z,27.30
2019-02-17T11:50:15.650Z,25.80
2019-02-17T11:52:44.331Z,27.40
2019-02-17T11:55:14.926Z,26.90
2019-02-17T11:57:43.971Z,26.10
2019-02-17T12:00:23.235Z,27.00
2019-02-17T12:02:51.936Z,25.90
2019-02-17T12:05:20.638Z,24.70
2019-02-17T12:07:49.355Z,24.70
2019-02-17T12:10:18.064Z,24.40
2019-02-17T12:12:46.733Z,25.50
2019-02-17T12:15:15.539Z,24.70
2019-02-17T12:17:44.214Z,25.30
2019-02-17T12:20:17.511Z,24.90
2019-02-17T12:22:47.263Z,24.40
2019-02-17T12:25:16.151Z,25.00
2019-02-17T12:27:46.646Z,25.50
2019-02-17T12:30:15.528Z,24.60
2019-02-17T12:32:44.099Z,23.70
2019-02-17T12:35:12.968Z,23.80
2019-02-17T12:37:41.543Z,23.00
2019-02-17T12:40:11.287Z,22.90
2019-02-17T12:42:39.930Z,24.00
2019-02-17T12:45:17.320Z,24.30
2019-02-17T12:47:43.661Z,24.80
2019-02-17T12:50:12.681Z,23.90
2019-02-17T12:52:47.142Z,23.80
2019-02-17T12:55:11.859Z,24.90
2019-02-17T12:57:40.532Z,25.00
2019-02-17T13:00:15.668Z,25.00
2019-02-17T13:02:44.543Z,24.30
2019-02-17T13:05:13.254Z,24.00
2019-02-17T13:07:42.923Z,23.70
2019-02-17T13:10:12.526Z,24.00
2019-02-17T13:12:41.108Z,23.30
2019-02-17T13:15:13.736Z,23.30
2019-02-17T13:17:42.440Z,23.20
2019-02-17T13:20:13.029Z,23.50
2019-02-17T13:22:41.596Z,23.30
2019-02-17T13:25:17.768Z,23.10
2019-02-17T13:27:46.347Z,23.80
2019-02-17T13:30:23.646Z,23.70
2019-02-17T13:32:52.409Z,24.30
2019-02-17T13:35:21.007Z,24.40
2019-02-17T13:37:49.755Z,24.50
2019-02-17T13:40:18.339Z,24.50
2019-02-17T13:42:47.151Z,25.30
2019-02-17T13:45:17.058Z,24.80
2019-02-17T13:47:45.771Z,25.20
2019-02-17T13:50:15.667Z,26.40
2019-02-17T13:52:44.336Z,26.00
2019-02-17T13:55:13.128Z,26.10
2019-02-17T13:57:41.852Z,25.70
2019-02-17T14:00:13.174Z,26.10
2019-02-17T14:02:41.776Z,25.70
2019-02-17T14:05:10.891Z,25.70
2019-02-17T14:07:39.653Z,25.70
2019-02-17T14:10:10.655Z,25.50
2019-02-17T14:12:39.424Z,25.00
2019-02-17T14:15:16.763Z,24.90
2019-02-17T14:17:45.813Z,25.00
2019-02-17T14:20:14.499Z,24.30
2019-02-17T14:22:43.163Z,23.30
2019-02-17T14:25:12.287Z,23.30
2019-02-17T14:27:41.031Z,22.20
2019-02-17T14:30:12.274Z,21.80
2019-02-17T14:32:41.101Z,21.10
2019-02-17T14:35:10.116Z,20.80
2019-02-17T14:37:38.719Z,20.10
2019-02-17T14:40:09.769Z,19.50
2019-02-17T14:42:38.371Z,19.30
2019-02-17T14:45:12.411Z,19.10
2019-02-17T14:47:41.095Z,19.10
2019-02-17T14:50:10.307Z,18.60
2019-02-17T14:52:38.952Z,18.60
2019-02-17T14:55:09.393Z,18.20
2019-02-17T14:57:39.571Z,18.30
2019-02-17T15:00:13.341Z,18.20
2019-02-17T15:02:42.053Z,18.00
2019-02-17T15:05:11.099Z,17.90
2019-02-17T15:07:39.804Z,17.70
2019-02-17T15:10:10.724Z,17.50
2019-02-17T15:12:39.387Z,17.00
2019-02-17T15:15:10.887Z,17.00
2019-02-17T15:17:39.642Z,17.00
2019-02-17T15:20:13.514Z,17.00
2019-02-17T15:22:42.096Z,17.00
2019-02-17T15:25:11.820Z,16.90
2019-02-17T15:27:40.419Z,17.00
2019-02-17T15:30:11.902Z,17.00
2019-02-17T15:32:40.679Z,17.00
2019-02-17T15:35:09.866Z,17.00
2019-02-17T15:37:38.829Z,16.80
2019-02-17T15:40:10.555Z,17.20
2019-02-17T15:42:39.124Z,17.50
2019-02-17T15:45:10.367Z,17.60
2019-02-17T15:47:39.023Z,17.60
2019-02-17T15:50:11.735Z,17.50
2019-02-17T15:52:40.367Z,17.20
2019-02-17T15:55:13.953Z,16.70
2019-02-17T15:57:42.594Z,16.10
2019-02-17T16:00:18.536Z,15.70
2019-02-17T16:02:47.241Z,15.20
2019-02-17T16:05:15.907Z,14.80
2019-02-17T16:07:44.585Z,14.30
2019-02-17T16:10:14.991Z,14.00
2019-02-17T16:12:43.602Z,13.60
2019-02-17T16:15:20.414Z,13.30
2019-02-17T16:17:49.097Z,13.00
2019-02-17T16:20:17.746Z,12.70
2019-02-17T16:22:46.537Z,12.40
2019-02-17T16:25:15.241Z,12.10
2019-02-17T16:27:43.875Z,11.90
2019-02-17T16:30:16.784Z,11.70
2019-02-17T16:32:45.419Z,11.50
2019-02-17T16:35:15.635Z,11.20
2019-02-17T16:37:44.285Z,11.00
2019-02-17T16:40:15.394Z,10.70
2019-02-17T16:42:44.112Z,10.50
2019-02-17T16:45:13.754Z,10.20
2019-02-17T16:47:42.658Z,10.10
2019-02-17T16:50:22.769Z,9.80
2019-02-17T16:52:51.486Z,9.70
2019-02-17T16:55:20.206Z,9.50
2019-02-17T16:57:49.023Z,9.30
2019-02-17T17:00:23.379Z,9.20
2019-02-17T17:02:54.091Z,9.10
2019-02-17T17:05:23.486Z,8.90
2019-02-17T17:07:52.223Z,8.80
2019-02-17T17:10:21.001Z,8.60
2019-02-17T17:12:49.684Z,8.50
2019-02-17T17:15:18.583Z,8.40
2019-02-17T17:17:47.297Z,8.30
2019-02-17T17:20:17.532Z,8.10
2019-02-17T17:22:46.247Z,8.10
2019-02-17T17:25:15.487Z,7.90
2019-02-17T17:27:44.221Z,7.80
2019-02-17T17:30:15.899Z,7.70
2019-02-17T17:32:44.535Z,7.60
2019-02-17T17:35:13.396Z,7.50
2019-02-17T17:37:42.115Z,7.40
2019-02-17T17:40:16.084Z,7.30
2019-02-17T17:42:44.826Z,7.20
2019-02-17T17:45:15.644Z,7.00
2019-02-17T17:47:44.247Z,7.00
2019-02-17T17:50:14.357Z,6.90
2019-02-17T17:52:43.096Z,6.70
2019-02-17T17:55:12.887Z,6.70
2019-02-17T17:57:41.723Z,6.60
2019-02-17T18:00:19.066Z,6.40
2019-02-17T18:02:48.035Z,6.40
2019-02-17T18:05:16.702Z,6.40
2019-02-17T18:07:45.267Z,6.30
2019-02-17T18:10:16.112Z,6.20
2019-02-17T18:12:44.740Z,6.10
2019-02-17T18:15:16.485Z,6.00
2019-02-17T18:17:53.968Z,6.00
2019-02-17T18:20:15.449Z,5.90
2019-02-17T18:22:44.089Z,5.80
2019-02-17T18:25:15.931Z,5.80
2019-02-17T18:27:44.616Z,5.70
2019-02-17T18:30:16.730Z,5.70
2019-02-17T18:32:45.494Z,5.60
2019-02-17T18:35:19.679Z,5.60
2019-02-17T18:37:45.119Z,5.60
2019-02-17T18:40:18.104Z,5.60
2019-02-17T18:42:46.788Z,5.60
2019-02-17T18:45:16.433Z,5.60
2019-02-17T18:47:45.065Z,5.60
2019-02-17T18:50:17.939Z,5.60
2019-02-17T18:52:46.646Z,5.60
2019-02-17T18:55:15.603Z,5.60
2019-02-17T18:57:49.978Z,5.50
2019-02-17T19:00:20.113Z,5.40
2019-02-17T19:02:48.676Z,5.30
2019-02-17T19:05:17.439Z,5.30
2019-02-17T19:07:46.264Z,5.30
2019-02-17T19:10:15.332Z,5.20
2019-02-17T19:12:44.000Z,5.10
2019-02-17T19:15:17.404Z,5.10
2019-02-17T19:17:46.078Z,5.10
2019-02-17T19:20:23.606Z,5.00
2019-02-17T19:22:52.207Z,4.90
2019-02-17T19:25:21.019Z,4.90
2019-02-17T19:27:49.591Z,4.80
2019-02-17T19:30:18.351Z,4.70
2019-02-17T19:32:54.298Z,4.60
2019-02-17T19:35:22.967Z,4.60
2019-02-17T19:37:51.674Z,4.60
2019-02-17T19:40:20.427Z,4.50
2019-02-17T19:42:49.152Z,4.50
2019-02-17T19:45:18.819Z,4.60
2019-02-17T19:47:47.570Z,4.60
2019-02-17T19:50:16.773Z,4.60
2019-02-17T19:52:45.643Z,4.60
2019-02-17T19:55:14.857Z,4.60
2019-02-17T19:57:43.594Z,4.50
2019-02-17T20:00:16.391Z,4.40
2019-02-17T20:02:49.377Z,4.30
2019-02-17T20:05:19.704Z,4.20
2019-02-17T20:07:48.334Z,4.10
2019-02-17T20:10:17.018Z,4.10
2019-02-17T20:12:45.591Z,4.10
2019-02-17T20:15:14.467Z,4.00
2019-02-17T20:17:43.040Z,4.00
2019-02-17T20:20:11.779Z,4.00
2019-02-17T20:22:40.495Z,3.90
2019-02-17T20:25:09.503Z,3.90
2019-02-17T20:27:38.108Z,3.80
2019-02-17T20:30:14.727Z,3.80
2019-02-17T20:32:43.476Z,3.70
2019-02-17T20:35:12.119Z,3.70
2019-02-17T20:37:40.760Z,3.80
2019-02-17T20:40:13.875Z,3.70
2019-02-17T20:42:42.438Z,3.50
2019-02-17T20:45:12.275Z,3.50
2019-02-17T20:47:40.916Z,3.50
2019-02-17T20:50:14.077Z,3.50
2019-02-17T20:52:42.819Z,3.40
2019-02-17T20:55:12.719Z,3.40
2019-02-17T20:57:41.626Z,3.30
2019-02-17T21:00:18.022Z,3.30
2019-02-17T21:02:46.714Z,3.30
2019-02-17T21:05:15.422Z,3.20
2019-02-17T21:07:44.079Z,3.50
2019-02-17T21:10:13.920Z,3.40
2019-02-17T21:12:42.559Z,3.30
2019-02-17T21:15:16.588Z,3.30
2019-02-17T21:17:45.240Z,3.20
2019-02-17T21:20:14.706Z,3.10
2019-02-17T21:22:43.396Z,3.10
2019-02-17T21:25:13.404Z,3.00
2019-02-17T21:27:42.147Z,2.90
2019-02-17T21:30:18.250Z,3.00
2019-02-17T21:32:47.456Z,3.00
2019-02-17T21:35:19.260Z,3.10
2019-02-17T21:37:48.209Z,3.00
2019-02-17T21:40:17.007Z,3.00
2019-02-17T21:42:45.659Z,3.00
2019-02-17T21:45:15.804Z,3.00
2019-02-17T21:47:44.445Z,3.00
2019-02-17T21:50:13.855Z,2.90
2019-02-17T21:52:42.664Z,3.00
2019-02-17T21:55:13.044Z,2.80
2019-02-17T21:57:41.862Z,2.80
2019-02-17T22:00:22.443Z,2.70
2019-02-17T22:02:51.276Z,2.60
2019-02-17T22:05:19.900Z,2.70
2019-02-17T22:07:48.473Z,2.60
2019-02-17T22:10:19.194Z,2.50
2019-02-17T22:12:47.906Z,2.60
2019-02-17T22:15:21.566Z,2.50
2019-02-17T22:17:50.279Z,2.50
2019-02-17T22:20:18.986Z,2.40
2019-02-17T22:22:47.576Z,2.50
2019-02-17T22:25:16.491Z,2.40
2019-02-17T22:27:45.499Z,2.50
2019-02-17T22:30:15.681Z,2.40
2019-02-17T22:32:44.382Z,2.50
2019-02-17T22:35:14.135Z,2.50
2019-02-17T22:37:42.838Z,2.50
2019-02-17T22:40:15.351Z,2.50
2019-02-17T22:42:44.074Z,2.30
2019-02-17T22:45:13.193Z,2.20
2019-02-17T22:47:41.935Z,2.20
2019-02-17T22:50:13.062Z,2.30
2019-02-17T22:52:41.789Z,2.20
2019-02-17T22:55:11.596Z,2.20
2019-02-17T22:57:40.300Z,2.20
2019-02-17T23:00:55.916Z,2.10
2019-02-17T23:03:24.862Z,2.20
2019-02-17T23:05:53.766Z,2.10
2019-02-17T23:08:22.563Z,2.10
2019-02-17T23:10:51.303Z,2.10
2019-02-17T23:13:19.949Z,2.00
2019-02-17T23:15:48.785Z,2.00
2019-02-17T23:18:17.363Z,2.00
2019-02-17T23:20:45.924Z,2.00
2019-02-17T23:23:16.385Z,1.90
2019-02-17T23:25:44.956Z,1.90
2019-02-17T23:28:14.169Z,1.90
2019-02-17T23:30:42.735Z,1.90
2019-02-17T23:33:11.375Z,1.80
2019-02-17T23:35:40.122Z,1.80
2019-02-17T23:38:08.909Z,1.90
2019-02-17T23:40:37.752Z,1.80
2019-02-17T23:43:06.391Z,1.70
2019-02-17T23:45:35.027Z,1.60
2019-02-17T23:48:04.071Z,1.60
2019-02-17T23:50:32.711Z,1.50
2019-02-17T23:53:01.620Z,1.50
2019-02-17T23:55:30.251Z,1.40
2019-02-17T23:57:58.963Z,1.50
